Time;durP1;ratioP1;P1;durP2;ratioP2;P2;SDS_P1;SDS_P2;PMS_P1;PMS_P2;Temp;Humidity;BMP_temperature;BMP_pressure;BME280_temperature;BME280_humidity;BME280_pressure;Samples;Min_cycle;Max_cycle;Signal;HPM_P1;HPM_P2
2022/06/27 00:01:08;;;;;;;9.93;9.07;;;;;;;20.82;100.00;99501.31;5092260;28;20593;-59
2022/06/27 00:03:36;;;;;;;10.25;9.25;;;;;;;20.89;100.00;99513.13;5091728;28;20219;-59
2022/06/27 00:06:03;;;;;;;11.10;9.98;;;;;;;20.93;100.00;99506.69;5092000;28;20195;-58
2022/06/27 00:08:30;;;;;;;12.10;10.90;;;;;;;20.96;100.00;99504.69;5092239;28;20202;-58
2022/06/27 00:10:57;;;;;;;15.32;10.30;;;;;;;21.02;100.00;99506.84;5092071;28;20583;-58
2022/06/27 00:13:24;;;;;;;11.10;9.95;;;;;;;21.05;100.00;99504.97;5091784;28;20200;-59
2022/06/27 00:15:51;;;;;;;11.73;10.75;;;;;;;21.07;100.00;99495.97;5091180;28;20583;-58
2022/06/27 00:18:18;;;;;;;16.75;12.20;;;;;;;21.01;100.00;99502.53;5091310;28;20199;-59
2022/06/27 00:20:46;;;;;;;12.68;11.65;;;;;;;20.97;100.00;99495.81;5091304;28;20195;-59
2022/06/27 00:23:13;;;;;;;15.95;11.45;;;;;;;21.04;100.00;99501.47;5091844;28;20233;-59
2022/06/27 00:25:40;;;;;;;18.58;11.95;;;;;;;21.05;100.00;99497.03;5091641;28;20195;-59
2022/06/27 00:28:07;;;;;;;13.52;12.30;;;;;;;21.05;100.00;99499.69;5091371;28;20290;-59
2022/06/27 00:30:34;;;;;;;19.05;12.73;;;;;;;21.09;100.00;99493.25;5091376;28;20199;-59
2022/06/27 00:33:01;;;;;;;13.30;11.93;;;;;;;21.06;100.00;99501.38;5091431;28;20199;-59
2022/06/27 00:35:28;;;;;;;14.27;12.90;;;;;;;21.00;100.00;99502.63;5091241;28;20202;-59
2022/06/27 00:37:56;;;;;;;14.63;13.20;;;;;;;20.95;100.00;99505.63;5091606;28;20197;-59
2022/06/27 00:40:23;;;;;;;15.27;13.65;;;;;;;20.91;100.00;99490.97;5091338;28;20199;-59
2022/06/27 00:42:50;;;;;;;13.25;11.88;;;;;;;20.97;100.00;99508.16;5091344;28;20584;-58
2022/06/27 00:45:17;;;;;;;16.00;13.02;;;;;;;20.98;100.00;99507.22;5090908;28;20210;-58
2022/06/27 00:47:44;;;;;;;15.57;12.10;;;;;;;20.83;100.00;99500.38;5091045;28;20199;-58
2022/06/27 00:50:11;;;;;;;16.27;11.43;;;;;;;20.88;100.00;99509.63;5090811;28;20201;-58
2022/06/27 00:52:38;;;;;;;13.50;10.48;;;;;;;20.81;100.00;99505.75;5090898;28;20196;-49
2022/06/27 00:55:08;;;;;;;17.10;11.38;;;;;;;20.74;100.00;99506.31;5091222;28;20195;-49
2022/06/27 00:57:36;;;;;;;14.60;10.98;;;;;;;20.70;100.00;99508.31;5091002;28;20667;-49
2022/06/27 01:00:04;;;;;;;13.43;10.93;;;;;;;20.58;100.00;99509.16;5091065;28;20585;-49
2022/06/27 01:02:31;;;;;;;13.98;10.20;;;;;;;20.47;100.00;99512.56;5090735;28;20197;-49
2022/06/27 01:04:58;;;;;;;10.57;9.52;;;;;;;20.37;100.00;99508.03;5090669;28;20223;-50
2022/06/27 01:07:25;;;;;;;11.45;9.88;;;;;;;20.31;100.00;99515.38;5090971;28;20195;-49
2022/06/27 01:09:53;;;;;;;11.93;10.10;;;;;;;20.19;100.00;99516.22;5090664;28;20195;-58
2022/06/27 01:12:23;;;;;;;14.25;10.20;;;;;;;20.21;100.00;99524.00;5090643;28;20207;-50
2022/06/27 01:14:50;;;;;;;11.80;10.55;;;;;;;20.09;100.00;99520.41;5090524;28;20195;-50
2022/06/27 01:17:18;;;;;;;13.77;12.48;;;;;;;20.16;100.00;99524.34;5090321;28;20203;-50
2022/06/27 01:19:45;;;;;;;17.80;16.00;;;;;;;20.13;100.00;99513.16;5090185;28;20203;-50
2022/06/27 01:22:13;;;;;;;17.77;15.60;;;;;;;20.15;100.00;99517.38;5090163;28;20234;-50
2022/06/27 01:24:41;;;;;;;21.30;19.10;;;;;;;20.22;100.00;99510.72;5090181;28;20223;-50
2022/06/27 01:27:08;;;;;;;23.10;17.85;;;;;;;20.30;100.00;99513.72;5090328;28;20230;-50
2022/06/27 01:29:36;;;;;;;24.48;19.73;;;;;;;20.29;100.00;99527.84;5090135;28;20223;-51
2022/06/27 01:32:03;;;;;;;22.88;17.20;;;;;;;20.25;100.00;99518.44;5089940;28;20645;-51
2022/06/27 01:34:30;;;;;;;19.92;17.55;;;;;;;20.30;100.00;99529.53;5090475;28;20583;-50
2022/06/27 01:36:57;;;;;;;18.83;15.95;;;;;;;20.30;100.00;99521.63;5090517;28;20626;-50
2022/06/27 01:39:27;;;;;;;21.73;15.43;;;;;;;20.44;100.00;99525.09;5090388;28;20198;-50
2022/06/27 01:41:56;;;;;;;17.65;15.40;;;;;;;20.51;100.00;99521.09;5090199;28;20209;-51
2022/06/27 01:44:25;;;;;;;15.88;14.23;;;;;;;20.60;100.00;99525.75;5090044;28;20349;-58
2022/06/27 01:46:56;;;;;;;14.70;11.98;;;;;;;20.52;100.00;99533.34;5090020;28;20203;-59
2022/06/27 01:49:22;;;;;;;14.23;12.10;;;;;;;20.54;100.00;99528.81;5090053;28;20202;-58
2022/06/27 01:51:51;;;;;;;12.88;11.30;;;;;;;20.57;100.00;99528.56;5090180;28;20573;-58
2022/06/27 01:54:20;;;;;;;12.20;10.48;;;;;;;20.58;100.00;99522.34;5089984;28;20685;-57
2022/06/27 01:56:50;;;;;;;14.38;10.57;;;;;;;20.57;100.00;99518.88;5089765;28;20206;-58
2022/06/27 01:59:18;;;;;;;12.40;10.82;;;;;;;20.56;100.00;99522.47;5089829;28;20199;-58
2022/06/27 02:01:46;;;;;;;15.27;11.70;;;;;;;20.60;100.00;99517.81;5089719;28;20221;-58
2022/06/27 02:04:14;;;;;;;14.48;12.35;;;;;;;20.60;100.00;99510.75;5089908;28;20781;-58
2022/06/27 02:06:43;;;;;;;18.55;13.40;;;;;;;20.65;100.00;99513.91;5089606;28;20195;-58
2022/06/27 02:09:12;;;;;;;19.38;14.00;;;;;;;20.57;100.00;99505.69;5089757;28;20205;-59
2022/06/27 02:11:42;;;;;;;14.70;13.27;;;;;;;20.52;100.00;99513.09;5089423;28;20327;-49
2022/06/27 02:14:10;;;;;;;16.63;12.90;;;;;;;20.48;100.00;99511.59;5089651;28;20214;-59
2022/06/27 02:16:41;;;;;;;17.30;13.35;;;;;;;20.48;100.00;99519.53;5089680;28;20203;-58
2022/06/27 02:19:08;;;;;;;21.35;14.82;;;;;;;20.43;100.00;99518.97;5089664;28;20246;-58
2022/06/27 02:21:35;;;;;;;18.58;14.75;;;;;;;20.36;100.00;99516.88;5089248;28;20749;-51
2022/06/27 02:24:03;;;;;;;22.58;15.60;;;;;;;20.19;100.00;99504.84;5089378;28;20302;-58
2022/06/27 02:26:31;;;;;;;19.40;16.33;;;;;;;20.21;100.00;99519.59;5089572;28;20282;-58
2022/06/27 02:28:59;;;;;;;18.70;16.10;;;;;;;20.17;100.00;99533.94;5089648;28;20205;-59
2022/06/27 02:31:28;;;;;;;20.02;16.38;;;;;;;20.08;100.00;99518.75;5089618;28;20191;-58
2022/06/27 02:33:57;;;;;;;22.25;18.08;;;;;;;20.01;100.00;99527.16;5089472;28;20195;-58
2022/06/27 02:36:30;;;;;;;24.63;17.60;;;;;;;19.80;100.00;99506.56;5089351;28;20199;-58
2022/06/27 02:39:00;;;;;;;20.55;17.30;;;;;;;19.95;100.00;99531.06;5089549;28;20289;-59
2022/06/27 02:41:29;;;;;;;24.65;18.23;;;;;;;19.99;100.00;99521.13;5089386;28;20195;-50
2022/06/27 02:44:03;;;;;;;18.63;16.67;;;;;;;20.10;100.00;99535.28;5091567;28;20310;-51
2022/06/27 02:46:31;;;;;;;31.17;16.00;;;;;;;20.11;100.00;99533.50;5093640;28;20205;-59
2022/06/27 02:49:00;;;;;;;26.73;15.75;;;;;;;20.21;100.00;99540.66;5092094;28;20344;-59
2022/06/27 02:51:31;;;;;;;19.77;13.40;;;;;;;20.28;100.00;99539.31;5092065;28;20198;-59
2022/06/27 02:54:03;;;;;;;15.45;12.55;;;;;;;20.34;100.00;99540.69;5092439;28;20663;-59
2022/06/27 02:56:32;;;;;;;15.25;12.43;;;;;;;20.26;100.00;99543.84;5092508;28;20619;-59
2022/06/27 02:59:05;;;;;;;16.50;11.18;;;;;;;20.07;100.00;99532.88;5092240;28;20282;-53
2022/06/27 03:01:34;;;;;;;12.60;11.30;;;;;;;20.08;100.00;99534.56;5090339;28;20207;-49
2022/06/27 03:04:01;;;;;;;12.73;11.00;;;;;;;20.07;100.00;99545.19;5087156;28;20694;-49
2022/06/27 03:06:29;;;;;;;19.38;11.35;;;;;;;19.96;100.00;99542.44;5089440;28;20292;-49
2022/06/27 03:08:56;;;;;;;12.93;10.60;;;;;;;19.92;100.00;99532.09;5091658;28;20211;-49
2022/06/27 03:11:25;;;;;;;13.23;11.00;;;;;;;19.93;100.00;99540.84;5091471;28;20200;-49
2022/06/27 03:13:54;;;;;;;12.65;11.30;;;;;;;19.85;100.00;99527.34;5091422;28;20187;-48
2022/06/27 03:16:22;;;;;;;14.68;11.18;;;;;;;19.93;100.00;99532.94;5091029;28;20207;-49
2022/06/27 03:18:51;;;;;;;12.82;10.60;;;;;;;20.02;100.00;99539.38;5090761;28;20199;-49
2022/06/27 03:21:20;;;;;;;12.07;10.00;;;;;;;20.11;100.00;99539.59;5087809;28;20215;-49
2022/06/27 03:23:48;;;;;;;10.38;9.32;;;;;;;20.17;100.00;99552.38;5090555;28;20194;-50
2022/06/27 03:26:15;;;;;;;13.88;8.65;;;;;;;20.26;100.00;99551.75;5088925;28;20191;-49
2022/06/27 03:28:42;;;;;;;16.70;9.63;;;;;;;20.36;100.00;99548.53;5086822;28;20205;-49
2022/06/27 03:31:09;;;;;;;13.00;9.45;;;;;;;20.52;100.00;99550.00;5090820;28;20199;-57
2022/06/27 03:33:37;;;;;;;13.05;10.52;;;;;;;20.59;100.00;99551.25;5087526;28;20679;-57
2022/06/27 03:36:06;;;;;;;11.70;10.45;;;;;;;20.62;100.00;99551.06;5089537;28;20617;-57
2022/06/27 03:38:33;;;;;;;31.40;23.48;;;;;;;20.75;100.00;99555.47;5083492;28;20199;-56
2022/06/27 03:41:01;;;;;;;44.95;37.30;;;;;;;20.82;100.00;99552.28;5086748;28;20846;-57
2022/06/27 03:43:28;;;;;;;47.47;36.20;;;;;;;20.97;100.00;99550.38;5088256;28;20616;-50
2022/06/27 03:45:55;;;;;;;45.38;35.97;;;;;;;21.16;100.00;99560.47;5086142;28;20215;-49
2022/06/27 03:51:20;;;;;;;27.25;19.05;;;;;;;21.55;100.00;99560.25;4992677;28;20206;-49
2022/06/27 03:53:47;;;;;;;19.80;17.67;;;;;;;21.72;100.00;99545.78;5063394;28;20206;-49
2022/06/27 03:56:14;;;;;;;20.25;15.50;;;;;;;22.72;100.00;99558.44;5087933;28;20205;-49
2022/06/27 03:58:41;;;;;;;17.77;13.50;;;;;;;24.10;100.00;99572.84;5085419;28;20201;-49
2022/06/27 04:01:08;;;;;;;13.68;11.30;;;;;;;25.38;100.00;99573.25;5089070;28;20274;-50
2022/06/27 04:03:35;;;;;;;13.15;10.45;;;;;;;26.73;100.00;99576.72;5089053;28;20274;-49
2022/06/27 04:06:02;;;;;;;12.60;8.88;;;;;;;27.71;100.00;99586.78;5086886;28;20224;-49
2022/06/27 04:08:30;;;;;;;9.73;8.77;;;;;;;28.75;96.29;99593.16;5090204;28;20201;-50
2022/06/27 04:10:57;;;;;;;11.07;8.38;;;;;;;29.50;91.01;99599.53;5089094;28;20277;-52
2022/06/27 04:13:24;;;;;;;9.35;8.15;;;;;;;30.41;86.51;99595.94;5089406;28;20857;-51
2022/06/27 04:15:51;;;;;;;11.77;8.73;;;;;;;31.44;80.97;99599.53;5089849;28;20221;-51
2022/06/27 04:18:19;;;;;;;11.48;9.18;;;;;;;32.10;74.47;99589.06;5089870;28;20194;-51
2022/06/27 04:20:46;;;;;;;10.70;8.73;;;;;;;32.90;70.63;99601.94;5089095;28;20709;-52
2022/06/27 04:23:13;;;;;;;9.85;8.93;;;;;;;33.85;64.38;99601.94;5089482;28;20235;-53
2022/06/27 04:25:42;;;;;;;15.05;9.23;;;;;;;34.41;60.52;99602.88;5087309;28;20219;-52
2022/06/27 04:28:09;;;;;;;13.55;8.57;;;;;;;34.65;58.82;99609.69;5090087;28;20292;-52
2022/06/27 04:30:36;;;;;;;15.27;8.45;;;;;;;34.82;57.72;99611.06;5089417;28;20218;-51
2022/06/27 04:33:04;;;;;;;18.67;9.20;;;;;;;35.01;57.86;99606.81;5088521;28;20673;-52
2022/06/27 04:35:32;;;;;;;10.65;8.82;;;;;;;34.88;57.65;99610.25;5089042;28;20686;-52
2022/06/27 04:38:00;;;;;;;10.82;9.57;;;;;;;35.37;56.13;99619.25;5087942;28;20602;-51
2022/06/27 04:40:27;;;;;;;11.45;9.75;;;;;;;35.51;55.37;99594.81;5087539;28;20204;-51
2022/06/27 04:42:56;;;;;;;11.90;9.77;;;;;;;34.61;57.01;99608.41;5088712;28;20225;-52
2022/06/27 04:45:24;;;;;;;11.02;10.00;;;;;;;34.42;57.62;99609.94;5089534;28;20310;-51
2022/06/27 04:47:52;;;;;;;13.07;10.13;;;;;;;35.32;55.92;99624.44;5089665;28;20211;-51
2022/06/27 04:50:21;;;;;;;12.90;9.95;;;;;;;36.59;51.78;99619.91;5088414;28;20226;-56
2022/06/27 04:52:49;;;;;;;12.05;10.57;;;;;;;36.90;49.69;99622.00;5086424;28;20241;-52
2022/06/27 04:55:17;;;;;;;15.13;10.45;;;;;;;36.90;49.90;99622.84;5089995;28;20210;-51
2022/06/27 04:57:46;;;;;;;16.80;11.35;;;;;;;36.71;50.41;99624.50;5086828;28;20207;-51
2022/06/27 05:00:16;;;;;;;15.40;11.45;;;;;;;36.96;49.40;99623.84;5083659;28;20740;-51
2022/06/27 05:02:44;;;;;;;14.63;12.23;;;;;;;36.77;49.08;99622.03;5089382;28;20229;-52
2022/06/27 05:05:11;;;;;;;11.25;9.93;;;;;;;37.27;47.88;99623.97;5088974;28;20634;-51
2022/06/27 05:07:38;;;;;;;14.98;10.57;;;;;;;37.96;46.67;99606.97;5088446;28;20195;-52
2022/06/27 05:10:07;;;;;;;19.00;9.80;;;;;;;38.78;44.23;99624.06;5090219;28;20302;-52
2022/06/27 05:12:33;;;;;;;10.10;8.10;;;;;;;38.86;42.57;99627.31;5089451;28;20609;-52
2022/06/27 05:15:00;;;;;;;8.93;8.00;;;;;;;38.31;43.72;99625.50;5089502;28;20201;-51
2022/06/27 05:17:29;;;;;;;9.13;7.57;;;;;;;37.70;45.21;99624.22;5089315;28;20269;-51
2022/06/27 05:19:56;;;;;;;9.18;8.15;;;;;;;37.43;46.12;99623.50;5089215;28;20230;-51
2022/06/27 05:22:23;;;;;;;9.48;7.72;;;;;;;37.60;45.32;99623.00;5088858;28;20325;-51
2022/06/27 05:24:50;;;;;;;12.95;8.18;;;;;;;37.65;45.00;99624.06;5087549;28;20222;-51
2022/06/27 05:27:18;;;;;;;11.00;7.47;;;;;;;37.91;45.05;99624.94;5089024;28;20202;-51
2022/06/27 05:29:45;;;;;;;8.18;7.30;;;;;;;38.49;43.09;99630.97;5089342;28;20213;-51
2022/06/27 05:32:12;;;;;;;9.48;6.60;;;;;;;38.62;42.24;99635.47;5088966;28;20195;-51
2022/06/27 05:34:41;;;;;;;8.93;6.47;;;;;;;38.04;44.31;99639.22;5088882;28;20214;-51
2022/06/27 05:37:08;;;;;;;8.25;6.78;;;;;;;38.90;42.54;99630.41;5087155;28;20194;-56
2022/06/27 05:39:35;;;;;;;7.50;6.75;;;;;;;38.53;42.45;99617.84;5089648;28;20194;-57
2022/06/27 05:42:04;;;;;;;6.47;5.93;;;;;;;38.08;43.12;99616.09;5089515;28;20205;-56
2022/06/27 05:44:31;;;;;;;7.18;6.00;;;;;;;37.51;44.08;99614.28;5089358;28;20191;-57
2022/06/27 05:46:59;;;;;;;6.78;6.20;;;;;;;36.30;46.89;99607.69;5089672;28;20221;-56
2022/06/27 05:49:26;;;;;;;7.70;6.65;;;;;;;36.22;47.47;99613.31;5086909;28;20187;-56
2022/06/27 05:51:55;;;;;;;7.55;6.88;;;;;;;36.47;48.18;99606.19;5089129;28;20370;-56
2022/06/27 05:54:23;;;;;;;6.93;6.43;;;;;;;36.95;46.97;99600.53;5089076;28;20285;-57
2022/06/27 05:56:51;;;;;;;7.10;6.60;;;;;;;37.42;45.46;99621.84;5089400;28;20186;-56
2022/06/27 05:59:19;;;;;;;8.30;7.10;;;;;;;37.68;44.99;99628.22;5089323;28;20277;-57
2022/06/27 06:01:46;;;;;;;7.68;6.70;;;;;;;36.49;47.87;99624.91;5089263;28;20197;-56
2022/06/27 06:04:14;;;;;;;7.40;6.10;;;;;;;36.06;48.70;99627.16;5089134;28;20190;-56
2022/06/27 06:06:43;;;;;;;6.90;6.30;;;;;;;36.32;48.34;99628.06;5088826;28;20222;-56
2022/06/27 06:09:13;;;;;;;8.15;6.85;;;;;;;36.98;47.56;99632.59;5083873;28;20248;-56
2022/06/27 06:11:41;;;;;;;6.40;5.90;;;;;;;37.06;46.90;99625.06;5089019;28;20271;-56
2022/06/27 06:14:08;;;;;;;8.27;6.03;;;;;;;37.15;46.88;99624.81;5086050;28;20221;-51
2022/06/27 06:16:36;;;;;;;5.60;5.10;;;;;;;37.68;44.95;99630.91;5088463;28;20218;-56
2022/06/27 06:19:04;;;;;;;9.07;4.88;;;;;;;36.64;45.57;99629.09;5085173;28;20194;-56
2022/06/27 06:21:31;;;;;;;5.63;4.93;;;;;;;35.73;47.73;99622.50;5088448;28;20222;-57
2022/06/27 06:23:59;;;;;;;6.47;5.15;;;;;;;36.07;47.31;99620.72;5089685;28;20272;-57
2022/06/27 06:26:27;;;;;;;11.77;5.20;;;;;;;36.68;45.42;99630.31;5089625;28;20620;-51
2022/06/27 06:28:55;;;;;;;6.07;4.70;;;;;;;36.82;44.45;99622.22;5089386;28;20205;-51
2022/06/27 06:31:23;;;;;;;4.95;4.30;;;;;;;36.59;44.77;99626.16;5089481;28;20201;-51
2022/06/27 06:33:51;;;;;;;5.43;4.75;;;;;;;35.68;45.99;99622.28;5089356;28;20203;-55
2022/06/27 06:36:19;;;;;;;5.03;4.53;;;;;;;35.03;47.55;99618.25;5089483;28;20654;-57
2022/06/27 06:38:47;;;;;;;5.38;4.97;;;;;;;35.09;47.57;99619.31;5089086;28;20282;-57
2022/06/27 06:41:15;;;;;;;7.75;4.72;;;;;;;34.21;49.32;99613.44;5089766;28;20195;-56
2022/06/27 06:43:46;;;;;;;8.05;4.57;;;;;;;34.17;51.30;99617.56;5090240;28;20256;-57
2022/06/27 06:46:13;;;;;;;6.13;4.60;;;;;;;33.98;50.65;99614.66;5090206;28;20226;-56
2022/06/27 06:48:40;;;;;;;7.60;4.63;;;;;;;34.24;50.30;99617.63;5089706;28;20286;-57
2022/06/27 06:51:07;;;;;;;5.25;4.82;;;;;;;33.97;51.18;99613.03;5088660;28;20195;-58
2022/06/27 06:53:36;;;;;;;5.00;4.45;;;;;;;33.52;52.86;99615.81;5089129;28;20214;-57
2022/06/27 06:56:04;;;;;;;7.22;4.95;;;;;;;33.67;51.83;99615.78;5089307;28;20268;-58
2022/06/27 06:58:31;;;;;;;5.00;4.70;;;;;;;33.89;51.53;99622.88;5089263;28;20195;-57
2022/06/27 07:00:59;;;;;;;6.43;4.53;;;;;;;33.72;52.74;99624.13;5088955;28;20196;-57
2022/06/27 07:03:26;;;;;;;6.75;5.03;;;;;;;34.05;52.34;99619.09;5089001;28;20209;-57
2022/06/27 07:05:54;;;;;;;5.65;4.30;;;;;;;34.09;51.77;99614.97;5089166;28;20768;-58
2022/06/27 07:08:22;;;;;;;5.47;4.88;;;;;;;33.94;51.83;99619.63;5089230;28;20569;-60
2022/06/27 07:10:49;;;;;;;5.28;4.60;;;;;;;34.29;52.58;99623.31;5088936;28;20191;-59
2022/06/27 07:13:16;;;;;;;5.90;4.90;;;;;;;34.59;51.14;99624.78;5088986;28;20215;-59
2022/06/27 07:15:45;;;;;;;7.05;5.32;;;;;;;34.59;52.55;99619.38;5088755;28;20188;-57
2022/06/27 07:18:14;;;;;;;4.65;4.35;;;;;;;34.33;51.67;99618.34;5089059;28;20195;-58
2022/06/27 07:20:41;;;;;;;4.95;4.55;;;;;;;34.41;50.35;99619.06;5089228;28;20744;-57
2022/06/27 07:23:08;;;;;;;5.00;4.60;;;;;;;34.58;50.93;99625.81;5088772;28;20234;-58
2022/06/27 07:25:36;;;;;;;5.03;4.55;;;;;;;34.64;52.40;99626.06;5088954;28;20226;-58
2022/06/27 07:28:03;;;;;;;5.10;4.80;;;;;;;34.42;50.35;99619.88;5089056;28;20213;-56
2022/06/27 07:30:31;;;;;;;7.63;4.82;;;;;;;34.27;51.90;99619.97;5091741;28;20203;-57
2022/06/27 07:32:58;;;;;;;5.00;4.70;;;;;;;34.12;52.00;99627.25;5092504;28;20206;-57
2022/06/27 07:35:28;;;;;;;6.45;4.43;;;;;;;34.63;54.00;99621.69;5092702;28;20199;-57
2022/06/27 07:37:55;;;;;;;5.35;4.78;;;;;;;35.05;49.96;99629.66;5092468;28;20643;-57
2022/06/27 07:40:24;;;;;;;6.05;4.95;;;;;;;35.39;50.75;99630.69;5091498;28;20210;-57
2022/06/27 07:42:53;;;;;;;4.90;4.45;;;;;;;35.52;47.86;99634.28;5090765;28;20201;-57
2022/06/27 07:45:20;;;;;;;5.43;5.03;;;;;;;35.56;47.71;99634.69;5088599;28;20226;-56
2022/06/27 07:47:47;;;;;;;5.65;4.70;;;;;;;34.95;47.92;99626.50;5090702;28;20192;-57
2022/06/27 07:50:36;;;;;;;7.07;4.32;;;;;;;35.15;48.76;99637.41;5092148;28;20213;-57
2022/06/27 07:53:13;;;;;;;4.28;4.00;;;;;;;34.88;48.00;99629.13;5091698;28;20196;-57
2022/06/27 07:55:41;;;;;;;9.77;4.80;;;;;;;35.10;48.39;99627.22;5092082;28;20195;-57
2022/06/27 07:58:09;;;;;;;9.60;4.82;;;;;;;35.18;48.40;99620.81;5091337;28;20270;-57
2022/06/27 08:00:37;;;;;;;4.80;4.50;;;;;;;35.60;47.88;99606.25;5071640;28;20196;-57
2022/06/27 08:03:36;;;;;;;4.68;3.72;;;;;;;35.18;46.16;99621.66;5071977;28;20385;-57
2022/06/27 08:05:53;;;;;;;4.47;4.13;;;;;;;35.71;46.69;99621.88;5078980;28;20273;-57
2022/06/27 08:08:23;;;;;;;5.22;4.68;;;;;;;35.75;45.29;99614.22;5092332;28;20199;-57
2022/06/27 08:10:50;;;;;;;4.65;4.35;;;;;;;35.95;44.67;99624.03;5091882;28;20672;-56
2022/06/27 08:13:17;;;;;;;6.68;4.50;;;;;;;36.18;44.22;99612.84;5092024;28;20195;-56
2022/06/27 08:15:47;;;;;;;4.25;3.85;;;;;;;36.47;44.16;99610.78;5090594;28;20197;-57
2022/06/27 08:18:14;;;;;;;4.78;4.35;;;;;;;37.23;43.33;99617.34;5091166;28;20198;-56
2022/06/27 08:20:42;;;;;;;4.88;4.45;;;;;;;37.90;40.43;99629.53;5091834;28;20580;-56
2022/06/27 08:23:10;;;;;;;5.07;4.30;;;;;;;37.92;40.97;99618.47;5091517;28;20231;-56
2022/06/27 08:25:39;;;;;;;5.05;4.50;;;;;;;38.12;39.97;99624.63;5091526;28;20240;-56
2022/06/27 08:28:06;;;;;;;4.55;4.18;;;;;;;38.64;39.53;99619.81;5091693;28;20203;-56
2022/06/27 08:30:34;;;;;;;5.55;4.07;;;;;;;38.59;38.73;99623.22;5091384;28;20195;-56
2022/06/27 08:33:02;;;;;;;4.70;4.38;;;;;;;38.37;38.94;99624.63;5091350;28;20259;-58
2022/06/27 08:35:30;;;;;;;4.88;3.92;;;;;;;38.29;39.48;99616.75;5091281;28;20201;-57
2022/06/27 08:37:58;;;;;;;5.13;4.78;;;;;;;37.87;40.33;99623.72;5091431;28;20665;-57
2022/06/27 08:40:26;;;;;;;5.38;5.07;;;;;;;37.46;39.40;99632.25;5091421;28;20675;-58
2022/06/27 08:42:56;;;;;;;4.18;3.85;;;;;;;37.23;40.28;99628.19;5091206;28;20191;-58
2022/06/27 08:45:25;;;;;;;5.55;4.82;;;;;;;36.99;41.42;99621.56;5090920;28;20205;-57
2022/06/27 08:47:55;;;;;;;5.53;4.63;;;;;;;36.73;42.83;99627.84;5091232;28;20195;-58
2022/06/27 08:50:22;;;;;;;5.05;4.45;;;;;;;36.08;40.10;99634.03;5091004;28;20225;-58
2022/06/27 08:52:50;;;;;;;3.85;3.65;;;;;;;35.49;42.74;99628.44;5091065;28;20195;-58
2022/06/27 08:55:18;;;;;;;3.33;3.13;;;;;;;35.33;40.66;99623.41;5091044;28;20651;-58
2022/06/27 08:57:45;;;;;;;3.90;3.70;;;;;;;35.15;42.73;99615.81;5090499;28;20202;-58
2022/06/27 09:00:17;;;;;;;4.90;4.53;;;;;;;34.59;43.88;99619.38;5089430;28;20227;-58
2022/06/27 09:02:44;;;;;;;3.97;3.78;;;;;;;34.53;44.85;99606.69;5091026;28;20686;-58
2022/06/27 09:05:21;;;;;;;4.78;4.22;;;;;;;34.47;42.92;99610.16;5091100;28;20198;-57
2022/06/27 09:07:51;;;;;;;4.10;3.80;;;;;;;34.38;41.37;99605.13;5090659;28;20226;-59
2022/06/27 09:10:30;;;;;;;4.20;3.88;;;;;;;34.20;42.77;99594.81;5090658;28;20235;-59
2022/06/27 09:12:59;;;;;;;3.85;3.60;;;;;;;34.24;42.00;99604.13;5089376;28;20206;-59
2022/06/27 09:15:44;;;;;;;4.95;4.55;;;;;;;34.49;43.23;99608.13;5089316;28;20683;-58
2022/06/27 09:18:12;;;;;;;5.05;3.50;;;;;;;34.31;43.06;99599.69;5087715;28;20758;-57
2022/06/27 09:20:54;;;;;;;3.90;3.70;;;;;;;34.18;40.10;99602.25;5090302;28;20199;-57
2022/06/27 09:23:28;;;;;;;4.80;4.13;;;;;;;34.22;43.06;99598.09;5089280;28;20233;-59
2022/06/27 09:26:00;;;;;;;5.38;4.47;;;;;;;34.67;43.86;99590.59;5090157;28;20225;-56
2022/06/27 09:28:43;;;;;;;5.40;3.90;;;;;;;34.58;42.75;99588.06;5090340;28;20617;-58
2022/06/27 09:31:25;;;;;;;4.25;4.05;;;;;;;34.51;42.75;99580.97;5088422;28;20281;-58
2022/06/27 09:34:12;;;;;;;4.05;3.78;;;;;;;34.23;43.27;99578.22;5090054;28;20206;-57
2022/06/27 09:36:42;;;;;;;6.70;6.18;;;;;;;34.29;42.52;99579.34;5089654;28;20652;-58
2022/06/27 09:39:19;;;;;;;5.53;4.13;;;;;;;34.00;43.95;99580.28;5090176;28;20294;-58
2022/06/27 09:41:50;;;;;;;4.45;4.13;;;;;;;33.96;41.77;99584.41;5089889;28;20199;-58
2022/06/27 09:44:22;;;;;;;7.85;3.95;;;;;;;33.85;42.76;99592.00;5090044;28;20290;-58
2022/06/27 09:46:59;;;;;;;5.03;4.63;;;;;;;34.04;43.58;99587.81;5089723;28;20234;-58
2022/06/27 09:49:30;;;;;;;7.22;6.63;;;;;;;34.21;40.50;99583.78;5089899;28;20198;-58
2022/06/27 09:51:57;;;;;;;10.55;4.55;;;;;;;34.29;43.00;99582.03;5089318;28;20223;-58
2022/06/27 09:54:26;;;;;;;3.88;3.67;;;;;;;34.40;39.55;99582.34;5089536;28;20203;-56
2022/06/27 09:56:55;;;;;;;4.82;3.47;;;;;;;34.45;38.12;99581.75;5089678;28;20308;-57
2022/06/27 09:59:23;;;;;;;4.05;3.83;;;;;;;34.54;39.93;99578.69;5089674;28;20197;-57
2022/06/27 10:01:53;;;;;;;4.07;3.72;;;;;;;34.49;40.31;99573.06;5089506;28;20203;-57
2022/06/27 10:04:24;;;;;;;5.07;3.92;;;;;;;34.50;40.90;99577.44;5089653;28;20295;-58
2022/06/27 10:06:53;;;;;;;5.57;4.30;;;;;;;34.45;40.50;99566.41;5089599;28;20292;-58
2022/06/27 10:09:24;;;;;;;3.53;3.33;;;;;;;34.27;40.94;99571.47;5089693;28;20607;-57
2022/06/27 10:12:21;;;;;;;3.55;3.25;;;;;;;34.25;40.37;99576.16;5089633;28;20244;-58
2022/06/27 10:15:22;;;;;;;4.22;3.78;;;;;;;33.79;41.22;99578.44;5089479;28;20207;-58
2022/06/27 10:17:58;;;;;;;3.80;3.50;;;;;;;33.54;43.08;99567.16;5089332;28;20191;-58
2022/06/27 10:20:33;;;;;;;4.70;4.03;;;;;;;33.68;43.03;99563.59;5089554;28;20674;-58
2022/06/27 10:23:31;;;;;;;3.97;3.78;;;;;;;33.02;43.50;99556.59;5089237;28;20321;-58
2022/06/27 10:25:59;;;;;;;4.32;4.03;;;;;;;32.97;44.83;99551.75;5088089;28;20195;-58
2022/06/27 10:28:27;;;;;;;4.57;3.78;;;;;;;32.72;45.32;99555.78;5089304;28;20191;-58
2022/06/27 10:30:55;;;;;;;4.72;4.38;;;;;;;32.49;45.06;99555.00;5088630;28;20202;-57
2022/06/27 10:33:40;;;;;;;3.78;3.58;;;;;;;32.20;44.20;99561.97;5087623;28;20210;-58
2022/06/27 10:36:14;;;;;;;4.03;3.83;;;;;;;31.97;45.89;99556.59;5088043;28;20205;-58
2022/06/27 10:39:01;;;;;;;4.78;4.35;;;;;;;31.81;45.46;99553.22;5089420;28;20660;-59
2022/06/27 10:41:41;;;;;;;4.60;4.20;;;;;;;31.87;46.38;99539.91;5083850;28;20199;-57
2022/06/27 10:44:31;;;;;;;4.30;4.00;;;;;;;31.95;46.60;99541.69;5082341;28;20693;-57
2022/06/27 10:46:59;;;;;;;4.10;3.80;;;;;;;31.99;46.63;99524.19;5085815;28;20706;-57
2022/06/27 10:49:29;;;;;;;6.65;4.70;;;;;;;32.04;46.85;99533.41;5085807;28;20742;-57
2022/06/27 10:52:33;;;;;;;5.65;3.95;;;;;;;32.30;45.31;99540.22;5085549;28;20192;-57
2022/06/27 10:55:01;;;;;;;4.10;3.85;;;;;;;32.19;45.40;99535.28;5086340;28;20206;-57
2022/06/27 10:57:46;;;;;;;4.70;4.07;;;;;;;32.23;44.94;99533.94;5086748;28;20218;-58
2022/06/27 11:00:38;;;;;;;4.00;3.80;;;;;;;32.18;44.69;99536.31;5085884;28;20199;-57
2022/06/27 11:03:05;;;;;;;4.03;3.72;;;;;;;32.23;44.11;99531.25;5073971;28;20207;-57
2022/06/27 11:05:52;;;;;;;3.80;3.60;;;;;;;32.28;44.00;99536.91;5089684;28;20191;-57
2022/06/27 11:08:20;;;;;;;6.20;4.25;;;;;;;32.28;44.71;99535.03;5090485;28;20316;-57
2022/06/27 11:10:47;;;;;;;3.78;3.05;;;;;;;32.03;44.38;99528.22;5089493;28;20601;-57
2022/06/27 11:13:39;;;;;;;4.30;3.92;;;;;;;31.88;44.62;99519.28;5090365;28;20282;-57
2022/06/27 11:16:07;;;;;;;5.10;3.78;;;;;;;31.96;43.74;99522.72;5088767;28;20199;-56
2022/06/27 11:18:50;;;;;;;4.00;3.70;;;;;;;31.87;44.07;99517.59;5089854;28;20199;-58
2022/06/27 11:21:21;;;;;;;4.40;3.83;;;;;;;31.85;43.44;99506.19;5090141;28;20233;-57
2022/06/27 11:23:53;;;;;;;3.95;3.75;;;;;;;31.98;43.98;99511.78;5088150;28;20197;-57
2022/06/27 11:26:20;;;;;;;4.40;4.03;;;;;;;31.87;45.41;99512.22;5089953;28;20249;-56
2022/06/27 11:34:17;;;;;;;4.18;3.88;;;;;;;32.39;42.23;99513.09;5089512;28;20199;-57
2022/06/27 11:36:46;;;;;;;4.10;3.80;;;;;;;32.22;42.24;99508.06;5089665;28;20205;-58
2022/06/27 11:39:14;;;;;;;6.25;3.90;;;;;;;32.20;42.29;99512.78;5090050;28;20210;-57
2022/06/27 11:41:41;;;;;;;3.95;3.75;;;;;;;32.29;43.10;99506.31;5089553;28;20260;-57
2022/06/27 11:44:10;;;;;;;4.53;4.07;;;;;;;32.34;42.84;99515.50;5087278;28;20192;-57